Latest Weather Observations for Mount Boyce

IDN60901

Issued at 5:11 am EST Sunday 19 April 2015 (issued every 10 minutes, with the page automatically refreshed every 10 minutes)

About weather observations | Map of Sydney area stations | Latest observations for Sydney area | Other Formats
Station Details ID: 063292 Name: MOUNT BOYCE AWS Lat: -33.62 Lon: 150.27 Height: 1080.0 m
Data from the previous 72 hours. | See also: Recent months at Mount Boyce
Date/Time
EST
Tmp

°C
App
Tmp
°C
Dew
Point
°C
Rel
Hum
%
Delta-T

°C
Wind Press
QNH
hPa
Press
MSL
hPa
Rain
since
9 am
mm
Dir
 
Spd
km/h
Gust
km/h
Spd
kts
Gust
kts
19/05:00am 11.1 7.2 10.9 99 0.1 WSW 22 30 12 16 - - 5.2
19/04:30am 11.0 7.1 10.8 99 0.1 W 22 33 12 18 - - 5.2
19/04:20am 11.0 7.1 10.8 99 0.1 W 22 35 12 19 - - 5.2
19/04:00am 11.1 7.6 10.8 98 0.2 W 20 32 11 17 - - 5.2
19/03:30am 11.2 7.7 10.9 98 0.2 WSW 20 35 11 19 - - 5.2
19/03:00am 11.2 7.7 11.0 99 0.1 WSW 20 35 11 19 - - 5.2
19/02:30am 11.3 7.5 11.1 99 0.1 W 22 32 12 17 - - 5.2
19/02:25am 11.3 7.1 11.1 99 0.1 W 24 35 13 19 - - 5.2
19/02:00am 11.3 8.1 11.1 99 0.1 WSW 19 28 10 15 - - 5.2
19/01:30am 11.3 7.8 11.0 98 0.2 WSW 20 28 11 15 - - 5.2
19/01:00am 11.5 8.3 11.2 98 0.2 W 19 32 10 17 - - 5.2
19/12:57am 11.6 8.2 11.3 98 0.2 W 20 30 11 16 - - 5.2
19/12:45am 11.6 7.5 11.3 98 0.2 W 24 35 13 19 - - 5.2
19/12:30am 11.7 7.6 11.4 98 0.2 W 24 37 13 20 - - 5.2
19/12:05am 12.0 8.0 11.7 98 0.2 W 24 35 13 19 - - 5.2
 
Date/Time
EST
Tmp

°C
App
Tmp
°C
Dew
Point
°C
Rel
Hum
%
Delta-T

°C
Wind Press
QNH
hPa
Press
MSL
hPa
Rain
since
9 am
mm
Dir
 
Spd
km/h
Gust
km/h
Spd
kts
Gust
kts
18/11:30pm 12.4 8.8 11.9 97 0.3 W 22 39 12 21 - - 5.2
18/11:00pm 12.5 8.5 11.9 96 0.3 W 24 37 13 20 - - 5.2
18/10:57pm 12.5 8.5 11.9 96 0.3 W 24 37 13 20 - - 5.2
18/10:30pm 12.5 8.5 11.9 96 0.3 W 24 37 13 20 - - 5.0
18/10:00pm 12.6 7.9 12.1 97 0.3 WNW 28 44 15 24 - - 5.0
18/09:39pm 12.7 8.5 12.4 98 0.2 W 26 46 14 25 - - 4.6
18/09:34pm 12.8 8.6 12.5 98 0.2 W 26 46 14 25 - - 4.6
18/09:30pm 12.8 9.0 12.5 98 0.2 W 24 39 13 21 - - 4.6
18/09:03pm 12.9 8.0 12.4 97 0.3 W 30 50 16 27 - - 4.2
18/09:01pm 12.9 8.0 12.4 97 0.3 W 30 50 16 27 - - 4.2
18/09:00pm 12.9 8.3 12.4 97 0.3 W 28 43 15 23 - - 4.2
18/08:43pm 13.0 8.4 12.4 96 0.3 W 28 46 15 25 - - 3.0
18/08:30pm 13.0 9.1 12.2 95 0.5 WNW 24 39 13 21 - - 2.6
18/08:20pm 13.1 8.8 12.2 94 0.5 WNW 26 43 14 23 - - 2.0
18/08:04pm 13.2 8.5 11.9 92 0.7 WNW 28 44 15 24 - - 1.6
18/08:00pm 13.0 8.2 11.6 91 0.8 WNW 28 50 15 27 - - 1.6
18/07:39pm 15.3 11.8 12.1 81 1.8 WNW 22 65 12 35 - - 0.6
18/07:30pm 16.4 14.4 12.6 78 2.2 NW 15 28 8 15 - - 0.0
18/07:00pm 16.6 14.1 12.4 76 2.4 NW 17 30 9 16 - - 0.0
18/06:30pm 16.7 14.3 12.5 76 2.4 NW 17 30 9 16 - - 0.0
18/06:00pm 16.6 14.9 12.6 77 2.3 NW 13 26 7 14 - - 0.0
18/05:30pm 16.5 14.9 12.8 79 2.2 NW 13 26 7 14 - - 0.0
18/05:00pm 16.9 15.4 13.2 79 2.2 NNW 13 20 7 11 - - 0.0
18/04:30pm 17.1 16.4 13.2 78 2.3 NW 9 17 5 9 - - 0.0
18/04:00pm 17.1 15.1 12.8 76 2.5 NW 15 26 8 14 - - 0.0
18/03:30pm 16.9 15.8 13.0 78 2.3 NNW 11 20 6 11 - - 0.0
18/03:00pm 16.8 15.2 12.7 77 2.4 NW 13 22 7 12 - - 0.0
18/02:30pm 16.8 15.2 12.7 77 2.4 NW 13 28 7 15 - - 0.0
18/02:00pm 16.9 14.5 12.6 76 2.5 WNW 17 28 9 15 - - 0.0
18/01:30pm 16.9 13.8 12.2 74 2.7 WNW 20 35 11 19 - - 0.0
18/01:00pm 17.0 14.1 12.3 74 2.7 WNW 19 32 10 17 - - 0.0
18/12:30pm 17.3 14.6 13.0 76 2.5 WNW 19 32 10 17 - - 0.0
18/12:00pm 17.4 15.1 12.9 75 2.6 WNW 17 30 9 16 - - 0.0
18/11:30am 17.9 15.5 13.8 77 2.5 W 19 32 10 17 - - 0.0
18/11:00am 16.8 14.2 13.1 79 2.2 W 19 33 10 18 - - 0.0
18/10:30am 16.6 14.3 13.1 80 2.1 W 17 24 9 13 - - 0.0
18/10:00am 16.2 13.2 12.7 80 2.0 W 20 32 11 17 - - 0.0
18/09:30am 16.3 13.3 12.5 78 2.2 WNW 20 37 11 20 - - 0.0
18/09:00am 16.0 13.2 12.7 81 1.9 WNW 19 32 10 17 - - 0.6
18/08:30am 15.6 13.5 12.5 82 1.8 NW 15 33 8 18 - - 0.6
18/08:00am 15.5 13.0 12.4 82 1.8 NW 17 33 9 18 - - 0.6
18/07:30am 15.1 12.2 12.4 84 1.6 WNW 19 32 10 17 - - 0.6
18/07:00am 15.1 13.0 12.4 84 1.6 WNW 15 33 8 18 - - 0.6
18/06:30am 15.0 12.2 12.5 85 1.4 WNW 19 35 10 19 - - 0.6
18/05:30am 15.5 12.8 13.0 85 1.5 NW 19 33 10 18 - - 0.6
18/05:00am 15.6 13.4 13.4 87 1.3 NW 17 28 9 15 - - 0.6
18/04:30am 15.3 14.7 13.5 89 1.1 NW 9 17 5 9 - - 0.6
18/04:00am 15.7 13.8 14.1 90 1.0 N 17 24 9 13 - - 0.6
18/03:46am 15.2 14.1 14.2 94 0.6 NNE 13 24 7 13 - - 0.6
18/03:30am 14.9 14.1 14.1 95 0.5 NE 11 22 6 12 - - 0.6
18/03:20am 14.8 14.4 14.0 95 0.5 NNE 9 17 5 9 - - 0.6
18/03:00am 15.1 14.1 14.6 97 0.3 N 13 24 7 13 - - 0.6
18/02:59am 15.1 14.1 14.6 97 0.3 N 13 24 7 13 - - 0.6
18/02:30am 14.8 13.8 14.6 99 0.1 NNE 13 22 7 12 - - 0.6
18/02:21am 14.8 13.4 14.6 99 0.1 NNE 15 24 8 13 - - 0.6
18/02:00am 14.6 14.3 14.4 99 0.1 NNE 9 19 5 10 - - 0.6
18/01:30am 14.4 14.6 14.2 99 0.1 NNE 6 13 3 7 - - 0.6
18/01:00am 14.7 13.7 14.5 99 0.1 NE 13 26 7 14 - - 0.6
18/12:30am 14.8 13.4 14.6 99 0.1 NE 15 30 8 16 - - 0.6
18/12:00am 14.8 13.4 14.6 99 0.1 NE 15 24 8 13 - - 0.6
 
Date/Time
EST
Tmp

°C
App
Tmp
°C
Dew
Point
°C
Rel
Hum
%
Delta-T

°C
Wind Press
QNH
hPa
Press
MSL
hPa
Rain
since
9 am
mm
Dir
 
Spd
km/h
Gust
km/h
Spd
kts
Gust
kts
17/11:30pm 14.8 14.2 14.6 99 0.1 ENE 11 19 6 10 - - 0.6
17/11:00pm 14.9 13.9 14.7 99 0.1 NE 13 24 7 13 - - 0.6
17/10:30pm 15.1 14.2 14.9 99 0.1 NE 13 22 7 12 - - 0.6
17/10:00pm 15.1 14.2 14.9 99 0.1 NE 13 20 7 11 - - 0.6
17/09:30pm 15.1 14.6 14.9 99 0.1 ENE 11 19 6 10 - - 0.6
17/09:00pm 15.1 15.0 14.9 99 0.1 ENE 9 15 5 8 - - 0.6
17/08:30pm 15.0 14.8 14.7 98 0.2 ENE 9 19 5 10 - - 0.6
17/08:00pm 15.1 14.9 14.8 98 0.2 ENE 9 17 5 9 - - 0.6
17/07:30pm 15.1 14.9 14.8 98 0.2 ENE 9 15 5 8 - - 0.6
17/07:00pm 15.1 15.3 14.8 98 0.2 ENE 7 15 4 8 - - 0.6
17/06:30pm 15.1 15.3 14.6 97 0.3 ENE 7 15 4 8 - - 0.6
17/06:00pm 15.2 15.4 14.7 97 0.3 ENE 7 13 4 7 - - 0.6
17/05:30pm 15.4 15.6 14.8 96 0.4 ENE 7 13 4 7 - - 0.6
17/05:00pm 15.5 15.6 14.5 94 0.6 ENE 7 13 4 7 - - 0.6
17/04:42pm 15.6 16.3 14.5 93 0.7 ENE 4 9 2 5 - - 0.6
17/04:30pm 15.8 16.5 14.5 92 0.8 NE 4 9 2 5 - - 0.6
17/04:05pm 16.0 16.4 14.7 92 0.8 ENE 6 9 3 5 - - 0.6
17/04:00pm 16.0 16.4 14.7 92 0.8 ENE 6 11 3 6 - - 0.6
17/03:40pm 16.0 16.3 14.5 91 0.9 ENE 6 9 3 5 - - 0.6
17/03:30pm 16.2 16.5 14.6 90 1.0 ENE 6 9 3 5 - - 0.6
17/03:00pm 16.8 18.4 14.8 88 1.2 CALM 0 0 0 0 - - 0.6
17/02:42pm 17.2 18.9 15.2 88 1.2 CALM 0 0 0 0 - - 0.6
17/02:30pm 17.2 18.5 15.2 88 1.2 W 2 7 1 4 - - 0.6
17/02:00pm 16.5 17.4 14.0 85 1.5 NW 2 7 1 4 - - 0.6
17/01:33pm 16.4 16.7 14.6 89 1.1 W 6 9 3 5 - - 0.6
17/01:30pm 16.3 16.7 14.7 90 1.0 WNW 6 9 3 5 - - 0.6
17/01:00pm 15.8 15.9 14.5 92 0.8 W 7 13 4 7 - - 0.6
17/12:38pm 16.1 16.2 15.5 96 0.4 W 9 13 5 7 - - 0.6
17/12:30pm 15.8 15.8 15.2 96 0.4 WSW 9 13 5 7 - - 0.6
17/12:00pm 15.3 16.5 14.8 97 0.3 W 2 9 1 5 - - 0.6
17/11:42am 15.3 15.6 15.0 98 0.2 WNW 7 11 4 6 - - 0.6
17/11:30am 15.5 16.8 15.2 98 0.2 NNW 2 9 1 5 - - 0.6
17/11:21am 15.0 15.8 14.7 98 0.2 NNW 4 9 2 5 - - 0.6
17/11:00am 14.8 14.9 14.5 98 0.2 N 7 11 4 6 - - 0.6
17/10:30am 14.5 14.1 14.2 98 0.2 NNE 9 15 5 8 - - 0.4
17/10:00am 14.9 14.7 14.7 99 0.1 NE 9 17 5 9 - - 0.4
17/09:30am 14.6 14.9 14.4 99 0.1 NE 6 13 3 7 - - 0.4
17/09:00am 14.3 13.9 14.0 98 0.2 NE 9 17 5 9 - - 8.0
17/08:30am 14.3 13.9 14.0 98 0.2 ENE 9 19 5 10 - - 8.0
17/08:00am 14.2 13.7 13.9 98 0.2 ENE 9 17 5 9 - - 8.0
17/07:30am 14.2 13.7 13.9 98 0.2 ENE 9 15 5 8 - - 8.0
17/07:16am 14.1 14.0 13.8 98 0.2 ENE 7 11 4 6 - - 8.0
17/07:00am 14.0 14.8 13.7 98 0.2 NE 2 9 1 5 - - 6.8
17/06:33am 13.9 13.3 13.6 98 0.2 ENE 9 15 5 8 - - 6.8
17/06:31am 13.9 13.3 13.6 98 0.2 ENE 9 15 5 8 - - 6.8
17/06:30am 13.9 13.3 13.6 98 0.2 ENE 9 15 5 8 - - 6.8
17/06:00am 13.9 13.3 13.6 98 0.2 ENE 9 13 5 7 - - 6.6
17/05:48am 14.0 13.8 13.7 98 0.2 ENE 7 15 4 8 - - 6.6
17/05:43am 14.0 13.8 13.7 98 0.2 ENE 7 13 4 7 - - 6.6
17/05:30am 14.0 13.8 13.7 98 0.2 ENE 7 11 4 6 - - 6.6
17/05:00am 14.1 14.0 13.8 98 0.2 ENE 7 11 4 6 - - 6.2
17/04:30am 14.0 13.5 13.7 98 0.2 ENE 9 15 5 8 - - 6.2
17/04:00am 14.1 13.9 13.6 97 0.3 ENE 7 13 4 7 - - 6.0
17/03:37am 14.1 13.9 13.6 97 0.3 E 7 13 4 7 - - 5.2
17/03:30am 14.1 13.9 13.6 97 0.3 E 7 13 4 7 - - 5.2
17/03:06am 14.3 14.2 13.8 97 0.3 ENE 7 11 4 6 - - 3.2
17/03:00am 14.3 14.2 13.8 97 0.3 ENE 7 11 4 6 - - 2.8
17/02:30am 14.3 14.4 13.8 97 0.3 ENE 6 9 3 5 - - 2.6
17/02:00am 14.4 14.6 14.1 98 0.2 ENE 6 9 3 5 - - 2.6
17/01:30am 14.3 15.6 14.0 98 0.2 CALM 0 0 0 0 - - 1.4
17/01:20am 14.4 14.6 14.1 98 0.2 ENE 6 9 3 5 - - 0.6
17/01:09am 14.4 14.6 14.1 98 0.2 ENE 6 9 3 5 - - 0.6
17/01:00am 14.3 14.8 14.0 98 0.2 ENE 4 9 2 5 - - 0.4
17/12:30am 14.4 13.9 13.9 97 0.3 ENE 9 15 5 8 - - 0.2
17/12:00am 14.5 14.1 14.0 97 0.3 ENE 9 15 5 8 - - 0.2
 
Date/Time
EST
Tmp

°C
App
Tmp
°C
Dew
Point
°C
Rel
Hum
%
Delta-T

°C
Wind Press
QNH
hPa
Press
MSL
hPa
Rain
since
9 am
mm
Dir
 
Spd
km/h
Gust
km/h
Spd
kts
Gust
kts
16/11:30pm 14.8 14.4 14.2 96 0.4 ENE 9 15 5 8 - - 0.2
16/11:00pm 14.9 14.1 13.9 94 0.6 ENE 11 15 6 8 - - 0.2
16/10:50pm 15.0 14.2 13.9 93 0.7 ENE 11 15 6 8 - - 0.2
16/10:47pm 15.1 14.3 14.0 93 0.7 ENE 11 15 6 8 - - 0.2
16/10:30pm 15.2 14.7 13.7 91 0.9 ENE 9 13 5 7 - - 0.2
16/10:00pm 15.5 15.3 13.7 89 1.1 ENE 7 9 4 5 - - 0.2
16/09:30pm 15.6 15.1 13.8 89 1.1 ENE 9 11 5 6 - - 0.2
16/09:00pm 15.8 15.1 13.3 85 1.5 ENE 9 13 5 7 - - 0.2
16/08:30pm 16.3 15.1 12.7 79 2.1 ENE 11 15 6 8 - - 0.2
16/08:00pm 18.8 19.5 12.1 65 3.9 CALM 0 0 0 0 - - 0.2
16/07:30pm 18.7 19.3 12.0 65 3.9 CALM 0 0 0 0 - - 0.2
16/07:00pm 18.3 18.3 11.1 63 4.1 W 2 7 1 4 - - 0.2
16/06:30pm 18.6 18.3 11.4 63 4.1 NNW 4 7 2 4 - - 0.2
16/06:00pm 18.7 17.5 11.5 63 4.2 W 9 15 5 8 - - 0.2
16/05:30pm 19.3 17.7 11.6 61 4.5 WNW 11 17 6 9 - - 0.2
16/05:00pm 20.3 18.0 11.8 58 5.0 W 15 26 8 14 - - 0.2
16/04:30pm 20.5 18.1 11.4 56 5.3 WNW 15 24 8 13 - - 0.2
16/04:00pm 21.3 18.7 11.9 55 5.5 WNW 17 30 9 16 - - 0.2
16/03:30pm 22.2 19.8 12.7 55 5.7 WNW 17 26 9 14 - - 0.2
16/03:00pm 21.4 17.8 12.0 55 5.5 W 22 33 12 18 - - 0.2
16/02:30pm 21.4 17.5 12.0 55 5.5 W 24 41 13 22 - - 0.2
16/02:00pm 21.5 17.8 12.6 57 5.3 W 24 39 13 21 - - 0.2
16/01:30pm 21.0 16.8 12.4 58 5.1 W 26 39 14 21 - - 0.2
16/01:00pm 20.6 16.8 12.3 59 4.9 W 24 37 13 20 - - 0.2
16/12:30pm 20.6 16.4 12.3 59 4.9 W 26 39 14 21 - - 0.2
16/12:00pm 20.3 15.9 11.8 58 5.0 W 26 39 14 21 - - 0.2
16/11:30am 20.0 16.1 12.0 60 4.7 W 24 41 13 22 - - 0.2
16/11:00am 19.6 16.4 11.9 61 4.5 W 20 32 11 17 - - 0.0
16/10:30am 19.4 17.5 13.1 67 3.8 W 15 26 8 14 - - 0.0
16/10:00am 18.3 15.9 12.7 70 3.3 W 17 26 9 14 - - 0.0
16/09:30am 18.2 16.2 12.6 70 3.3 WNW 15 24 8 13 - - 0.0
16/09:00am 17.2 14.9 11.7 70 3.2 WNW 15 26 8 14 - - 20.4
16/08:30am 16.4 14.4 11.6 73 2.7 W 13 22 7 12 - - 20.4
16/08:00am 16.1 13.3 11.3 73 2.7 WNW 17 26 9 14 - - 20.4
16/07:30am 15.7 12.3 11.3 75 2.5 WNW 20 33 11 18 - - 20.4
16/07:00am 14.9 12.5 11.3 79 2.0 WNW 15 24 8 13 - - 20.4
16/06:30am 14.9 12.5 11.3 79 2.0 WNW 15 30 8 16 - - 20.4
16/06:00am 14.4 12.3 11.2 81 1.8 WNW 13 26 7 14 - - 20.4
16/05:30am 14.0 12.2 11.0 82 1.7 W 11 15 6 8 - - 20.4

Latest Capital City Observations: Canberra | Sydney | Melbourne | Brisbane | Adelaide | Perth | Hobart | Darwin

Other Formats:

Comma delimited format used in spreadsheet applications
http://www.bom.gov.au/fwo/IDN60901/IDN60901.94743.axf

JavaScript Object Notation format (JSON) in row-major order
http://www.bom.gov.au/fwo/IDN60901/IDN60901.94743.json